NO-0015 weather

Ler Airfield
Melhus, Sør-Trøndelag, Norway

Public forecast

Using degrees Celsius for public forecast. Weather courtesy of forecast.io.

Closest aviation weather report (METAR) to Ler Airfield

Closest report is Trondheim Airport Værnes, 23.1 nm (42.9 km) NE. Retrieved 2020/06/02 23:20 UTC (28 minutes ago):

ENVA 022320Z AUTO 00000KT 9999 BKN015/// OVC019/// 12/09 Q1016 RMK WIND 670FT VRB03KT

Closest aviation forecast (TAF) to Ler Airfield

Closest forecast is Trondheim Airport Værnes, 23.1 nm (42.9 km) NE. Retrieved 2020/06/02 18:57 UTC (5 hours ago):

TAF ENVA 021700Z 0218/0318 27015KT 9999 FEW050 BECMG 0222/0224 VRB07KT -SHRA FEW012TCU BKN025 PROB40 TEMPO 0300/0318 4000 TSRA BKN012CB